sensor_id;sensor_type;location;lat;lon;timestamp;temperature;humidity
18733;DHT22;9495;51.210;2.934;2022-10-03T00:01:42;11.10;99.90
18733;DHT22;9495;51.210;2.934;2022-10-03T00:04:29;11.10;99.90
18733;DHT22;9495;51.210;2.934;2022-10-03T00:07:08;11.10;99.90
18733;DHT22;9495;51.210;2.934;2022-10-03T00:09:53;11.10;99.90
18733;DHT22;9495;51.210;2.934;2022-10-03T00:12:40;11.10;99.90
18733;DHT22;9495;51.210;2.934;2022-10-03T00:15:17;11.00;99.90
18733;DHT22;9495;51.210;2.934;2022-10-03T00:17:56;11.10;99.90
18733;DHT22;9495;51.210;2.934;2022-10-03T00:20:39;11.00;99.90
18733;DHT22;9495;51.210;2.934;2022-10-03T00:23:17;10.90;99.90
18733;DHT22;9495;51.210;2.934;2022-10-03T00:25:54;11.00;99.90
18733;DHT22;9495;51.210;2.934;2022-10-03T00:28:56;11.00;99.90
18733;DHT22;9495;51.210;2.934;2022-10-03T00:31:37;11.00;99.90
18733;DHT22;9495;51.210;2.934;2022-10-03T00:34:20;10.80;99.90
18733;DHT22;9495;51.210;2.934;2022-10-03T00:37:02;10.90;99.90
18733;DHT22;9495;51.210;2.934;2022-10-03T00:39:44;10.90;99.90
18733;DHT22;9495;51.210;2.934;2022-10-03T00:42:43;10.90;99.90
18733;DHT22;9495;51.210;2.934;2022-10-03T00:45:37;10.90;99.90
18733;DHT22;9495;51.210;2.934;2022-10-03T00:48:27;10.90;99.90
18733;DHT22;9495;51.210;2.934;2022-10-03T00:54:01;10.90;99.90
18733;DHT22;9495;51.210;2.934;2022-10-03T00:59:38;10.80;99.90
18733;DHT22;9495;51.210;2.934;2022-10-03T01:02:28;10.80;99.90
18733;DHT22;9495;51.210;2.934;2022-10-03T01:05:11;10.80;99.90
18733;DHT22;9495;51.210;2.934;2022-10-03T01:08:03;10.80;99.90
18733;DHT22;9495;51.210;2.934;2022-10-03T01:10:42;10.70;99.90
18733;DHT22;9495;51.210;2.934;2022-10-03T01:13:23;10.70;99.90
18733;DHT22;9495;51.210;2.934;2022-10-03T01:15:59;10.70;99.90
18733;DHT22;9495;51.210;2.934;2022-10-03T01:18:40;10.70;99.90
18733;DHT22;9495;51.210;2.934;2022-10-03T01:21:17;10.70;99.90
18733;DHT22;9495;51.210;2.934;2022-10-03T01:26:55;10.70;99.90
18733;DHT22;9495;51.210;2.934;2022-10-03T01:29:42;10.70;99.90
18733;DHT22;9495;51.210;2.934;2022-10-03T01:32:33;10.70;99.90
18733;DHT22;9495;51.210;2.934;2022-10-03T01:35:16;10.60;99.90
18733;DHT22;9495;51.210;2.934;2022-10-03T01:37:53;10.60;99.90
18733;DHT22;9495;51.210;2.934;2022-10-03T01:40:27;10.50;99.90
18733;DHT22;9495;51.210;2.934;2022-10-03T01:43:04;10.50;99.90
18733;DHT22;9495;51.210;2.934;2022-10-03T01:45:57;10.60;99.90
18733;DHT22;9495;51.210;2.934;2022-10-03T01:48:35;10.60;99.90
18733;DHT22;9495;51.210;2.934;2022-10-03T01:51:09;10.50;99.90
18733;DHT22;9495;51.210;2.934;2022-10-03T01:53:56;10.50;99.90
18733;DHT22;9495;51.210;2.934;2022-10-03T01:56:31;10.50;99.90
18733;DHT22;9495;51.210;2.934;2022-10-03T01:59:04;10.40;99.90
18733;DHT22;9495;51.210;2.934;2022-10-03T02:01:44;10.30;99.90
18733;DHT22;9495;51.210;2.934;2022-10-03T02:04:19;10.40;99.90
18733;DHT22;9495;51.210;2.934;2022-10-03T02:06:53;10.30;99.90
18733;DHT22;9495;51.210;2.934;2022-10-03T02:09:29;10.40;99.90
18733;DHT22;9495;51.210;2.934;2022-10-03T02:12:22;10.40;99.90
18733;DHT22;9495;51.210;2.934;2022-10-03T02:14:58;10.40;99.90
18733;DHT22;9495;51.210;2.934;2022-10-03T02:17:42;10.30;99.90
18733;DHT22;9495;51.210;2.934;2022-10-03T02:20:23;10.30;99.90
18733;DHT22;9495;51.210;2.934;2022-10-03T02:22:55;10.30;99.90
18733;DHT22;9495;51.210;2.934;2022-10-03T02:25:28;10.30;99.90
18733;DHT22;9495;51.210;2.934;2022-10-03T02:28:31;10.20;99.90
18733;DHT22;9495;51.210;2.934;2022-10-03T02:34:28;10.30;99.90
18733;DHT22;9495;51.210;2.934;2022-10-03T02:50:04;10.20;99.90
18733;DHT22;9495;51.210;2.934;2022-10-03T02:53:05;10.20;99.90
18733;DHT22;9495;51.210;2.934;2022-10-03T02:56:05;10.20;99.90
18733;DHT22;9495;51.210;2.934;2022-10-03T02:59:01;10.20;99.90
18733;DHT22;9495;51.210;2.934;2022-10-03T03:02:06;10.20;99.90
18733;DHT22;9495;51.210;2.934;2022-10-03T03:05:10;10.30;99.90
18733;DHT22;9495;51.210;2.934;2022-10-03T03:11:08;10.20;99.90
18733;DHT22;9495;51.210;2.934;2022-10-03T03:17:08;10.20;99.90
18733;DHT22;9495;51.210;2.934;2022-10-03T03:19:56;10.10;99.90
18733;DHT22;9495;51.210;2.934;2022-10-03T03:22:38;10.20;99.90
18733;DHT22;9495;51.210;2.934;2022-10-03T03:25:26;10.20;99.90
18733;DHT22;9495;51.210;2.934;2022-10-03T03:28:07;10.10;99.90
18733;DHT22;9495;51.210;2.934;2022-10-03T03:30:43;10.10;99.90
18733;DHT22;9495;51.210;2.934;2022-10-03T03:33:22;10.10;99.90
18733;DHT22;9495;51.210;2.934;2022-10-03T03:35:59;10.10;99.90
18733;DHT22;9495;51.210;2.934;2022-10-03T03:38:36;10.10;99.90
18733;DHT22;9495;51.210;2.934;2022-10-03T03:41:20;10.00;99.90
18733;DHT22;9495;51.210;2.934;2022-10-03T03:43:59;10.00;99.90
18733;DHT22;9495;51.210;2.934;2022-10-03T03:46:42;9.90;99.90
18733;DHT22;9495;51.210;2.934;2022-10-03T03:49:27;9.80;99.90
18733;DHT22;9495;51.210;2.934;2022-10-03T03:52:11;10.00;99.90
18733;DHT22;9495;51.210;2.934;2022-10-03T03:55:21;9.90;99.90
18733;DHT22;9495;51.210;2.934;2022-10-03T04:01:06;9.90;99.90
18733;DHT22;9495;51.210;2.934;2022-10-03T04:03:47;9.90;99.90
18733;DHT22;9495;51.210;2.934;2022-10-03T04:06:40;9.90;99.90
18733;DHT22;9495;51.210;2.934;2022-10-03T04:09:23;9.90;99.90
18733;DHT22;9495;51.210;2.934;2022-10-03T04:12:05;9.90;99.90
18733;DHT22;9495;51.210;2.934;2022-10-03T04:14:54;9.90;99.90
18733;DHT22;9495;51.210;2.934;2022-10-03T04:17:40;9.90;99.90
18733;DHT22;9495;51.210;2.934;2022-10-03T04:20:43;9.90;99.90
18733;DHT22;9495;51.210;2.934;2022-10-03T04:23:26;9.90;99.90
18733;DHT22;9495;51.210;2.934;2022-10-03T04:26:07;9.90;99.90
18733;DHT22;9495;51.210;2.934;2022-10-03T04:29:04;9.90;99.90
18733;DHT22;9495;51.210;2.934;2022-10-03T04:31:46;9.90;99.90
18733;DHT22;9495;51.210;2.934;2022-10-03T04:34:32;10.00;99.90
18733;DHT22;9495;51.210;2.934;2022-10-03T04:37:10;9.80;99.90
18733;DHT22;9495;51.210;2.934;2022-10-03T04:39:49;9.80;99.90
18733;DHT22;9495;51.210;2.934;2022-10-03T04:42:30;9.80;99.90
18733;DHT22;9495;51.210;2.934;2022-10-03T04:45:25;9.80;99.90
18733;DHT22;9495;51.210;2.934;2022-10-03T04:48:08;9.80;99.90
18733;DHT22;9495;51.210;2.934;2022-10-03T04:50:41;9.80;99.90
18733;DHT22;9495;51.210;2.934;2022-10-03T04:53:21;9.70;99.90
18733;DHT22;9495;51.210;2.934;2022-10-03T04:55:55;9.70;99.90
18733;DHT22;9495;51.210;2.934;2022-10-03T04:58:35;9.70;99.90
18733;DHT22;9495;51.210;2.934;2022-10-03T05:01:12;9.70;99.90
18733;DHT22;9495;51.210;2.934;2022-10-03T05:03:47;9.70;99.90
18733;DHT22;9495;51.210;2.934;2022-10-03T05:06:30;9.70;99.90
18733;DHT22;9495;51.210;2.934;2022-10-03T05:09:15;9.60;99.90
18733;DHT22;9495;51.210;2.934;2022-10-03T05:11:54;9.70;99.90
18733;DHT22;9495;51.210;2.934;2022-10-03T05:14:30;9.60;99.90
18733;DHT22;9495;51.210;2.934;2022-10-03T05:17:13;9.60;99.90
18733;DHT22;9495;51.210;2.934;2022-10-03T05:20:02;9.60;99.90
18733;DHT22;9495;51.210;2.934;2022-10-03T05:22:43;9.60;99.90
18733;DHT22;9495;51.210;2.934;2022-10-03T05:25:19;9.60;99.90
18733;DHT22;9495;51.210;2.934;2022-10-03T05:27:57;9.60;99.90
18733;DHT22;9495;51.210;2.934;2022-10-03T05:30:35;9.50;99.90
18733;DHT22;9495;51.210;2.934;2022-10-03T05:33:14;9.50;99.90
18733;DHT22;9495;51.210;2.934;2022-10-03T05:35:57;9.50;99.90
18733;DHT22;9495;51.210;2.934;2022-10-03T05:39:01;9.50;99.90
18733;DHT22;9495;51.210;2.934;2022-10-03T05:41:51;9.50;99.90
18733;DHT22;9495;51.210;2.934;2022-10-03T05:44:42;9.50;99.90
18733;DHT22;9495;51.210;2.934;2022-10-03T05:47:19;9.40;99.90
18733;DHT22;9495;51.210;2.934;2022-10-03T05:50:34;9.40;99.90
18733;DHT22;9495;51.210;2.934;2022-10-03T05:53:28;9.50;99.90
18733;DHT22;9495;51.210;2.934;2022-10-03T05:56:06;9.50;99.90
18733;DHT22;9495;51.210;2.934;2022-10-03T05:59:07;9.50;99.90
18733;DHT22;9495;51.210;2.934;2022-10-03T06:01:56;9.50;99.90
18733;DHT22;9495;51.210;2.934;2022-10-03T06:04:45;9.40;99.90
18733;DHT22;9495;51.210;2.934;2022-10-03T06:07:24;9.50;99.90
18733;DHT22;9495;51.210;2.934;2022-10-03T06:13:10;9.50;99.90
18733;DHT22;9495;51.210;2.934;2022-10-03T06:25:30;9.50;99.90
18733;DHT22;9495;51.210;2.934;2022-10-03T06:28:24;9.50;99.90
18733;DHT22;9495;51.210;2.934;2022-10-03T06:31:12;9.60;99.90
18733;DHT22;9495;51.210;2.934;2022-10-03T06:36:51;9.80;99.90
18733;DHT22;9495;51.210;2.934;2022-10-03T06:39:56;9.90;99.90
18733;DHT22;9495;51.210;2.934;2022-10-03T06:46:10;9.90;99.90
18733;DHT22;9495;51.210;2.934;2022-10-03T06:48:59;9.90;99.90
18733;DHT22;9495;51.210;2.934;2022-10-03T06:51:48;10.00;99.90
18733;DHT22;9495;51.210;2.934;2022-10-03T07:01:00;10.10;99.90
18733;DHT22;9495;51.210;2.934;2022-10-03T07:04:07;10.20;99.90
18733;DHT22;9495;51.210;2.934;2022-10-03T07:06:52;10.30;99.90
18733;DHT22;9495;51.210;2.934;2022-10-03T07:13:01;10.70;99.90
18733;DHT22;9495;51.210;2.934;2022-10-03T07:19:18;11.00;99.90
18733;DHT22;9495;51.210;2.934;2022-10-03T07:22:15;11.10;99.90
18733;DHT22;9495;51.210;2.934;2022-10-03T07:25:29;11.20;99.90
18733;DHT22;9495;51.210;2.934;2022-10-03T07:28:21;11.30;99.90
18733;DHT22;9495;51.210;2.934;2022-10-03T07:31:05;11.60;99.90
18733;DHT22;9495;51.210;2.934;2022-10-03T07:36:56;11.70;99.90
18733;DHT22;9495;51.210;2.934;2022-10-03T07:43:23;11.70;99.90
18733;DHT22;9495;51.210;2.934;2022-10-03T07:46:39;11.70;99.90
18733;DHT22;9495;51.210;2.934;2022-10-03T07:49:47;11.80;99.90
18733;DHT22;9495;51.210;2.934;2022-10-03T07:52:45;12.10;99.90
18733;DHT22;9495;51.210;2.934;2022-10-03T07:55:29;12.10;99.90
18733;DHT22;9495;51.210;2.934;2022-10-03T07:58:23;12.30;99.90
18733;DHT22;9495;51.210;2.934;2022-10-03T08:07:03;12.70;99.90
18733;DHT22;9495;51.210;2.934;2022-10-03T08:09:51;12.70;99.90
18733;DHT22;9495;51.210;2.934;2022-10-03T08:12:55;13.10;99.90
18733;DHT22;9495;51.210;2.934;2022-10-03T08:15:39;12.90;99.90
18733;DHT22;9495;51.210;2.934;2022-10-03T08:18:44;12.90;99.90
18733;DHT22;9495;51.210;2.934;2022-10-03T08:21:20;12.90;99.90
18733;DHT22;9495;51.210;2.934;2022-10-03T08:24:16;13.50;99.90
18733;DHT22;9495;51.210;2.934;2022-10-03T08:30:18;13.20;99.90
18733;DHT22;9495;51.210;2.934;2022-10-03T08:33:02;13.40;99.90
18733;DHT22;9495;51.210;2.934;2022-10-03T08:36:06;13.40;99.90
18733;DHT22;9495;51.210;2.934;2022-10-03T08:38:53;13.40;99.90
18733;DHT22;9495;51.210;2.934;2022-10-03T08:44:56;13.50;99.90
18733;DHT22;9495;51.210;2.934;2022-10-03T08:50:55;13.50;99.90
18733;DHT22;9495;51.210;2.934;2022-10-03T08:56:59;13.70;99.90
18733;DHT22;9495;51.210;2.934;2022-10-03T08:59:54;13.90;99.90
18733;DHT22;9495;51.210;2.934;2022-10-03T09:02:56;14.20;99.90
18733;DHT22;9495;51.210;2.934;2022-10-03T09:06:16;14.50;99.90
18733;DHT22;9495;51.210;2.934;2022-10-03T09:12:21;15.10;99.90
18733;DHT22;9495;51.210;2.934;2022-10-03T09:15:09;14.90;99.90
18733;DHT22;9495;51.210;2.934;2022-10-03T09:18:05;15.30;99.90
18733;DHT22;9495;51.210;2.934;2022-10-03T09:24:18;14.80;99.90
18733;DHT22;9495;51.210;2.934;2022-10-03T09:30:20;14.90;99.90
18733;DHT22;9495;51.210;2.934;2022-10-03T09:36:13;15.20;99.90
18733;DHT22;9495;51.210;2.934;2022-10-03T09:39:05;15.30;99.90
18733;DHT22;9495;51.210;2.934;2022-10-03T09:44:51;16.60;99.90
18733;DHT22;9495;51.210;2.934;2022-10-03T09:50:57;16.40;99.90
18733;DHT22;9495;51.210;2.934;2022-10-03T09:53:43;16.20;99.90
18733;DHT22;9495;51.210;2.934;2022-10-03T09:56:40;16.50;99.90
18733;DHT22;9495;51.210;2.934;2022-10-03T09:59:35;17.00;99.90
18733;DHT22;9495;51.210;2.934;2022-10-03T10:02:23;16.80;99.90
18733;DHT22;9495;51.210;2.934;2022-10-03T10:05:17;16.50;99.90
18733;DHT22;9495;51.210;2.934;2022-10-03T10:08:12;16.00;99.90
18733;DHT22;9495;51.210;2.934;2022-10-03T10:10:55;16.10;99.90
18733;DHT22;9495;51.210;2.934;2022-10-03T10:14:02;16.30;99.90
18733;DHT22;9495;51.210;2.934;2022-10-03T10:16:54;16.40;99.90
18733;DHT22;9495;51.210;2.934;2022-10-03T10:19:43;16.70;99.90
18733;DHT22;9495;51.210;2.934;2022-10-03T10:22:53;16.80;99.90
18733;DHT22;9495;51.210;2.934;2022-10-03T10:25:33;16.50;99.90
18733;DHT22;9495;51.210;2.934;2022-10-03T10:31:26;16.80;99.90
18733;DHT22;9495;51.210;2.934;2022-10-03T10:34:27;16.50;99.90
18733;DHT22;9495;51.210;2.934;2022-10-03T10:37:43;16.60;99.90
18733;DHT22;9495;51.210;2.934;2022-10-03T10:59:33;17.00;99.90
18733;DHT22;9495;51.210;2.934;2022-10-03T11:05:45;17.70;99.90
18733;DHT22;9495;51.210;2.934;2022-10-03T11:18:12;17.60;99.90
18733;DHT22;9495;51.210;2.934;2022-10-03T11:21:16;17.80;99.90
18733;DHT22;9495;51.210;2.934;2022-10-03T11:27:50;18.00;99.90
18733;DHT22;9495;51.210;2.934;2022-10-03T11:39:38;17.70;99.90
18733;DHT22;9495;51.210;2.934;2022-10-03T11:42:18;18.10;99.90
18733;DHT22;9495;51.210;2.934;2022-10-03T11:44:54;18.40;99.90
18733;DHT22;9495;51.210;2.934;2022-10-03T11:47:41;18.10;99.90
18733;DHT22;9495;51.210;2.934;2022-10-03T11:50:30;18.50;99.90
18733;DHT22;9495;51.210;2.934;2022-10-03T11:53:18;18.40;99.90
18733;DHT22;9495;51.210;2.934;2022-10-03T11:55:52;18.60;99.90
18733;DHT22;9495;51.210;2.934;2022-10-03T11:58:38;18.50;99.90
18733;DHT22;9495;51.210;2.934;2022-10-03T12:01:25;18.30;99.90
18733;DHT22;9495;51.210;2.934;2022-10-03T12:04:02;18.10;99.90
18733;DHT22;9495;51.210;2.934;2022-10-03T12:06:53;18.40;99.90
18733;DHT22;9495;51.210;2.934;2022-10-03T12:09:56;18.30;99.90
18733;DHT22;9495;51.210;2.934;2022-10-03T12:12:34;18.30;99.90
18733;DHT22;9495;51.210;2.934;2022-10-03T12:15:16;18.80;99.90
18733;DHT22;9495;51.210;2.934;2022-10-03T12:17:52;18.90;99.90
18733;DHT22;9495;51.210;2.934;2022-10-03T12:20:29;19.00;99.90
18733;DHT22;9495;51.210;2.934;2022-10-03T12:23:07;19.00;99.90
18733;DHT22;9495;51.210;2.934;2022-10-03T12:25:42;19.30;99.90
18733;DHT22;9495;51.210;2.934;2022-10-03T12:28:17;19.30;99.90
18733;DHT22;9495;51.210;2.934;2022-10-03T12:30:48;18.60;99.90
18733;DHT22;9495;51.210;2.934;2022-10-03T12:33:45;18.50;99.90
18733;DHT22;9495;51.210;2.934;2022-10-03T12:36:17;18.60;99.90
18733;DHT22;9495;51.210;2.934;2022-10-03T12:38:56;18.40;99.90
18733;DHT22;9495;51.210;2.934;2022-10-03T12:41:42;18.30;99.90
18733;DHT22;9495;51.210;2.934;2022-10-03T12:44:21;18.30;99.90
18733;DHT22;9495;51.210;2.934;2022-10-03T12:47:04;18.30;99.90
18733;DHT22;9495;51.210;2.934;2022-10-03T12:49:45;18.30;99.90
18733;DHT22;9495;51.210;2.934;2022-10-03T12:52:21;18.40;99.90
18733;DHT22;9495;51.210;2.934;2022-10-03T12:55:02;18.40;99.90
18733;DHT22;9495;51.210;2.934;2022-10-03T12:57:46;18.40;99.90
18733;DHT22;9495;51.210;2.934;2022-10-03T13:00:19;18.40;99.90
18733;DHT22;9495;51.210;2.934;2022-10-03T13:03:05;18.50;99.90
18733;DHT22;9495;51.210;2.934;2022-10-03T13:06:02;18.60;99.90
18733;DHT22;9495;51.210;2.934;2022-10-03T13:08:44;18.50;99.90
18733;DHT22;9495;51.210;2.934;2022-10-03T13:11:27;18.50;99.90
18733;DHT22;9495;51.210;2.934;2022-10-03T13:14:20;18.60;99.90
18733;DHT22;9495;51.210;2.934;2022-10-03T13:16:58;18.70;99.90
18733;DHT22;9495;51.210;2.934;2022-10-03T13:19:38;18.70;99.90
18733;DHT22;9495;51.210;2.934;2022-10-03T13:22:24;18.70;99.90
18733;DHT22;9495;51.210;2.934;2022-10-03T13:25:00;18.90;99.90
18733;DHT22;9495;51.210;2.934;2022-10-03T13:27:36;18.70;99.90
18733;DHT22;9495;51.210;2.934;2022-10-03T13:30:16;18.60;99.90
18733;DHT22;9495;51.210;2.934;2022-10-03T13:32:47;18.50;99.90
18733;DHT22;9495;51.210;2.934;2022-10-03T13:35:24;18.60;99.90
18733;DHT22;9495;51.210;2.934;2022-10-03T13:41:21;18.60;99.90
18733;DHT22;9495;51.210;2.934;2022-10-03T13:43:56;18.60;99.90
18733;DHT22;9495;51.210;2.934;2022-10-03T13:46:31;18.80;99.90
18733;DHT22;9495;51.210;2.934;2022-10-03T13:49:09;18.70;99.90
18733;DHT22;9495;51.210;2.934;2022-10-03T13:51:45;18.80;99.90
18733;DHT22;9495;51.210;2.934;2022-10-03T13:54:19;19.20;99.90
18733;DHT22;9495;51.210;2.934;2022-10-03T13:56:54;18.90;99.90
18733;DHT22;9495;51.210;2.934;2022-10-03T13:59:47;18.90;99.90
18733;DHT22;9495;51.210;2.934;2022-10-03T14:02:35;18.90;99.90
18733;DHT22;9495;51.210;2.934;2022-10-03T14:05:28;18.80;99.90
18733;DHT22;9495;51.210;2.934;2022-10-03T14:08:09;19.20;99.90
18733;DHT22;9495;51.210;2.934;2022-10-03T14:11:01;19.10;99.90
18733;DHT22;9495;51.210;2.934;2022-10-03T14:13:43;19.40;99.90
18733;DHT22;9495;51.210;2.934;2022-10-03T14:16:23;19.20;99.90
18733;DHT22;9495;51.210;2.934;2022-10-03T14:19:00;19.00;99.90
18733;DHT22;9495;51.210;2.934;2022-10-03T14:22:01;19.00;99.90
18733;DHT22;9495;51.210;2.934;2022-10-03T14:24:41;18.90;99.90
18733;DHT22;9495;51.210;2.934;2022-10-03T14:27:40;19.20;99.90
18733;DHT22;9495;51.210;2.934;2022-10-03T14:30:11;19.20;99.90
18733;DHT22;9495;51.210;2.934;2022-10-03T14:32:48;19.60;99.90
18733;DHT22;9495;51.210;2.934;2022-10-03T14:35:36;19.20;99.90
18733;DHT22;9495;51.210;2.934;2022-10-03T14:38:29;19.20;99.90
18733;DHT22;9495;51.210;2.934;2022-10-03T14:41:20;19.50;99.90
18733;DHT22;9495;51.210;2.934;2022-10-03T14:43:56;19.30;99.90
18733;DHT22;9495;51.210;2.934;2022-10-03T14:46:30;19.10;99.90
18733;DHT22;9495;51.210;2.934;2022-10-03T14:49:01;19.20;99.90
18733;DHT22;9495;51.210;2.934;2022-10-03T14:51:35;19.30;99.90
18733;DHT22;9495;51.210;2.934;2022-10-03T14:54:13;19.10;99.90
18733;DHT22;9495;51.210;2.934;2022-10-03T14:56:44;19.20;99.90
18733;DHT22;9495;51.210;2.934;2022-10-03T14:59:18;18.90;99.90
18733;DHT22;9495;51.210;2.934;2022-10-03T15:01:48;18.80;99.90
18733;DHT22;9495;51.210;2.934;2022-10-03T15:04:29;18.70;99.90
18733;DHT22;9495;51.210;2.934;2022-10-03T15:06:59;18.60;99.90
18733;DHT22;9495;51.210;2.934;2022-10-03T15:09:32;18.60;99.90
18733;DHT22;9495;51.210;2.934;2022-10-03T15:12:11;18.50;99.90
18733;DHT22;9495;51.210;2.934;2022-10-03T15:14:45;18.40;99.90
18733;DHT22;9495;51.210;2.934;2022-10-03T15:17:18;18.30;99.90
18733;DHT22;9495;51.210;2.934;2022-10-03T15:19:51;18.20;99.90
18733;DHT22;9495;51.210;2.934;2022-10-03T15:22:27;18.20;99.90
18733;DHT22;9495;51.210;2.934;2022-10-03T15:25:00;18.30;99.90
18733;DHT22;9495;51.210;2.934;2022-10-03T15:27:30;18.20;99.90
18733;DHT22;9495;51.210;2.934;2022-10-03T15:30:03;18.20;99.90
18733;DHT22;9495;51.210;2.934;2022-10-03T15:32:35;18.20;99.90
18733;DHT22;9495;51.210;2.934;2022-10-03T15:35:05;18.10;99.90
18733;DHT22;9495;51.210;2.934;2022-10-03T15:37:38;18.10;99.90
18733;DHT22;9495;51.210;2.934;2022-10-03T15:40:20;18.10;99.90
18733;DHT22;9495;51.210;2.934;2022-10-03T15:43:02;18.10;99.90
18733;DHT22;9495;51.210;2.934;2022-10-03T15:45:34;18.10;99.90
18733;DHT22;9495;51.210;2.934;2022-10-03T15:48:08;18.30;99.90
18733;DHT22;9495;51.210;2.934;2022-10-03T15:50:40;18.20;99.90
18733;DHT22;9495;51.210;2.934;2022-10-03T15:53:14;18.30;99.90
18733;DHT22;9495;51.210;2.934;2022-10-03T15:56:09;18.20;99.90
18733;DHT22;9495;51.210;2.934;2022-10-03T15:58:42;18.20;99.90
18733;DHT22;9495;51.210;2.934;2022-10-03T16:01:17;18.30;99.90
18733;DHT22;9495;51.210;2.934;2022-10-03T16:03:49;18.30;99.90
18733;DHT22;9495;51.210;2.934;2022-10-03T16:06:19;18.40;99.90
18733;DHT22;9495;51.210;2.934;2022-10-03T16:08:56;18.40;99.90
18733;DHT22;9495;51.210;2.934;2022-10-03T16:11:28;18.60;99.90
18733;DHT22;9495;51.210;2.934;2022-10-03T16:14:11;18.70;99.90
18733;DHT22;9495;51.210;2.934;2022-10-03T16:16:45;19.20;99.90
18733;DHT22;9495;51.210;2.934;2022-10-03T16:19:28;18.90;99.90
18733;DHT22;9495;51.210;2.934;2022-10-03T16:22:11;18.90;99.90
18733;DHT22;9495;51.210;2.934;2022-10-03T16:24:46;18.20;99.90
18733;DHT22;9495;51.210;2.934;2022-10-03T16:27:18;17.30;99.90
18733;DHT22;9495;51.210;2.934;2022-10-03T16:29:52;17.00;99.90
18733;DHT22;9495;51.210;2.934;2022-10-03T16:32:25;16.90;99.90
18733;DHT22;9495;51.210;2.934;2022-10-03T16:34:57;16.90;99.90
18733;DHT22;9495;51.210;2.934;2022-10-03T16:37:27;16.70;99.90
18733;DHT22;9495;51.210;2.934;2022-10-03T16:40:00;16.80;99.90
18733;DHT22;9495;51.210;2.934;2022-10-03T16:42:38;16.60;99.90
18733;DHT22;9495;51.210;2.934;2022-10-03T16:45:19;16.60;99.90
18733;DHT22;9495;51.210;2.934;2022-10-03T16:47:50;16.40;99.90
18733;DHT22;9495;51.210;2.934;2022-10-03T16:50:42;16.40;99.90
18733;DHT22;9495;51.210;2.934;2022-10-03T16:53:13;16.40;99.90
18733;DHT22;9495;51.210;2.934;2022-10-03T16:55:46;16.30;99.90
18733;DHT22;9495;51.210;2.934;2022-10-03T16:58:19;16.30;99.90
18733;DHT22;9495;51.210;2.934;2022-10-03T17:00:54;16.20;99.90
18733;DHT22;9495;51.210;2.934;2022-10-03T17:03:45;16.10;99.90
18733;DHT22;9495;51.210;2.934;2022-10-03T17:06:18;16.40;99.90
18733;DHT22;9495;51.210;2.934;2022-10-03T17:08:52;16.50;99.90
18733;DHT22;9495;51.210;2.934;2022-10-03T17:11:24;16.70;99.90
18733;DHT22;9495;51.210;2.934;2022-10-03T17:13:55;16.70;99.90
18733;DHT22;9495;51.210;2.934;2022-10-03T17:16:30;16.70;99.90
18733;DHT22;9495;51.210;2.934;2022-10-03T17:19:19;16.70;99.90
18733;DHT22;9495;51.210;2.934;2022-10-03T17:21:51;16.60;99.90
18733;DHT22;9495;51.210;2.934;2022-10-03T17:24:26;16.50;99.90
18733;DHT22;9495;51.210;2.934;2022-10-03T17:27:01;16.50;99.90
18733;DHT22;9495;51.210;2.934;2022-10-03T17:29:36;16.50;99.90
18733;DHT22;9495;51.210;2.934;2022-10-03T17:32:19;16.50;99.90
18733;DHT22;9495;51.210;2.934;2022-10-03T17:34:52;16.50;99.90
18733;DHT22;9495;51.210;2.934;2022-10-03T17:40:55;16.40;99.90
18733;DHT22;9495;51.210;2.934;2022-10-03T17:43:34;16.30;99.90
18733;DHT22;9495;51.210;2.934;2022-10-03T17:46:13;16.20;99.90
18733;DHT22;9495;51.210;2.934;2022-10-03T17:48:50;16.20;99.90
18733;DHT22;9495;51.210;2.934;2022-10-03T17:51:33;16.10;99.90
18733;DHT22;9495;51.210;2.934;2022-10-03T17:54:08;16.00;99.90
18733;DHT22;9495;51.210;2.934;2022-10-03T17:56:42;16.00;99.90
18733;DHT22;9495;51.210;2.934;2022-10-03T17:59:14;15.90;99.90
18733;DHT22;9495;51.210;2.934;2022-10-03T18:01:54;15.70;99.90
18733;DHT22;9495;51.210;2.934;2022-10-03T18:04:29;15.70;99.90
18733;DHT22;9495;51.210;2.934;2022-10-03T18:07:04;15.60;99.90
18733;DHT22;9495;51.210;2.934;2022-10-03T18:09:39;15.60;99.90
18733;DHT22;9495;51.210;2.934;2022-10-03T18:12:16;15.70;99.90
18733;DHT22;9495;51.210;2.934;2022-10-03T18:17:49;15.50;99.90
18733;DHT22;9495;51.210;2.934;2022-10-03T18:20:35;15.50;99.90
18733;DHT22;9495;51.210;2.934;2022-10-03T18:23:10;15.40;99.90
18733;DHT22;9495;51.210;2.934;2022-10-03T18:25:50;15.30;99.90
18733;DHT22;9495;51.210;2.934;2022-10-03T18:28:53;15.30;99.90
18733;DHT22;9495;51.210;2.934;2022-10-03T18:31:27;15.20;99.90
18733;DHT22;9495;51.210;2.934;2022-10-03T18:34:02;15.10;99.90
18733;DHT22;9495;51.210;2.934;2022-10-03T18:36:42;15.00;99.90
18733;DHT22;9495;51.210;2.934;2022-10-03T18:39:15;15.00;99.90
18733;DHT22;9495;51.210;2.934;2022-10-03T18:41:48;15.00;99.90
18733;DHT22;9495;51.210;2.934;2022-10-03T18:44:19;15.00;99.90
18733;DHT22;9495;51.210;2.934;2022-10-03T18:47:03;14.80;99.90
18733;DHT22;9495;51.210;2.934;2022-10-03T18:49:37;14.80;99.90
18733;DHT22;9495;51.210;2.934;2022-10-03T18:52:10;14.70;99.90
18733;DHT22;9495;51.210;2.934;2022-10-03T18:54:49;14.70;99.90
18733;DHT22;9495;51.210;2.934;2022-10-03T18:57:24;14.60;99.90
18733;DHT22;9495;51.210;2.934;2022-10-03T18:59:56;14.60;99.90
18733;DHT22;9495;51.210;2.934;2022-10-03T19:02:32;14.50;99.90
18733;DHT22;9495;51.210;2.934;2022-10-03T19:05:08;14.50;99.90
18733;DHT22;9495;51.210;2.934;2022-10-03T19:07:44;14.50;99.90
18733;DHT22;9495;51.210;2.934;2022-10-03T19:10:30;14.50;99.90
18733;DHT22;9495;51.210;2.934;2022-10-03T19:13:15;14.50;99.90
18733;DHT22;9495;51.210;2.934;2022-10-03T19:18:58;14.40;99.90
18733;DHT22;9495;51.210;2.934;2022-10-03T19:21:34;14.40;99.90
18733;DHT22;9495;51.210;2.934;2022-10-03T19:24:06;14.40;99.90
18733;DHT22;9495;51.210;2.934;2022-10-03T19:26:43;14.40;99.90
18733;DHT22;9495;51.210;2.934;2022-10-03T19:29:14;14.30;99.90
18733;DHT22;9495;51.210;2.934;2022-10-03T19:31:58;14.20;99.90
18733;DHT22;9495;51.210;2.934;2022-10-03T19:34:34;14.20;99.90
18733;DHT22;9495;51.210;2.934;2022-10-03T19:37:06;14.20;99.90
18733;DHT22;9495;51.210;2.934;2022-10-03T19:39:38;14.20;99.90
18733;DHT22;9495;51.210;2.934;2022-10-03T19:42:25;14.10;99.90
18733;DHT22;9495;51.210;2.934;2022-10-03T19:44:57;14.10;99.90
18733;DHT22;9495;51.210;2.934;2022-10-03T19:47:30;14.10;99.90
18733;DHT22;9495;51.210;2.934;2022-10-03T19:50:06;14.00;99.90
18733;DHT22;9495;51.210;2.934;2022-10-03T19:52:40;14.00;99.90
18733;DHT22;9495;51.210;2.934;2022-10-03T19:55:11;13.90;99.90
18733;DHT22;9495;51.210;2.934;2022-10-03T19:57:43;13.90;99.90
18733;DHT22;9495;51.210;2.934;2022-10-03T20:00:25;13.90;99.90
18733;DHT22;9495;51.210;2.934;2022-10-03T20:02:58;13.90;99.90
18733;DHT22;9495;51.210;2.934;2022-10-03T20:05:36;13.80;99.90
18733;DHT22;9495;51.210;2.934;2022-10-03T20:08:15;13.80;99.90
18733;DHT22;9495;51.210;2.934;2022-10-03T20:10:54;13.70;99.90
18733;DHT22;9495;51.210;2.934;2022-10-03T20:13:27;13.60;99.90
18733;DHT22;9495;51.210;2.934;2022-10-03T20:15:56;13.60;99.90
18733;DHT22;9495;51.210;2.934;2022-10-03T20:18:28;13.60;99.90